sensor_id;sensor_type;location;lat;lon;timestamp;P1;durP1;ratioP1;P2;durP2;ratioP2
57311;SDS011;43154;50.966;18.316;2023-01-09T00:01:17;59.40;;;24.60;;
57311;SDS011;43154;50.966;18.316;2023-01-09T00:03:45;58.30;;;24.70;;
57311;SDS011;43154;50.966;18.316;2023-01-09T00:06:11;59.70;;;24.20;;
57311;SDS011;43154;50.966;18.316;2023-01-09T00:08:37;61.10;;;24.30;;
57311;SDS011;43154;50.966;18.316;2023-01-09T00:11:03;58.60;;;24.10;;
57311;SDS011;43154;50.966;18.316;2023-01-09T00:13:28;61.40;;;24.50;;
57311;SDS011;43154;50.966;18.316;2023-01-09T00:15:54;64.50;;;25.50;;
57311;SDS011;43154;50.966;18.316;2023-01-09T00:18:20;62.60;;;25.50;;
57311;SDS011;43154;50.966;18.316;2023-01-09T00:20:45;60.00;;;23.90;;
57311;SDS011;43154;50.966;18.316;2023-01-09T00:23:11;59.20;;;24.00;;
57311;SDS011;43154;50.966;18.316;2023-01-09T00:25:36;58.60;;;23.40;;
57311;SDS011;43154;50.966;18.316;2023-01-09T00:28:02;55.60;;;23.10;;
57311;SDS011;43154;50.966;18.316;2023-01-09T00:30:28;53.80;;;22.50;;
57311;SDS011;43154;50.966;18.316;2023-01-09T00:32:54;61.70;;;24.50;;
57311;SDS011;43154;50.966;18.316;2023-01-09T00:35:20;62.10;;;24.90;;
57311;SDS011;43154;50.966;18.316;2023-01-09T00:37:47;59.00;;;24.20;;
57311;SDS011;43154;50.966;18.316;2023-01-09T00:40:13;59.30;;;24.60;;
57311;SDS011;43154;50.966;18.316;2023-01-09T00:42:42;59.60;;;24.20;;
57311;SDS011;43154;50.966;18.316;2023-01-09T00:45:10;61.00;;;24.50;;
57311;SDS011;43154;50.966;18.316;2023-01-09T00:47:41;57.00;;;23.20;;
57311;SDS011;43154;50.966;18.316;2023-01-09T00:50:15;59.00;;;24.60;;
57311;SDS011;43154;50.966;18.316;2023-01-09T00:52:44;55.30;;;23.40;;
57311;SDS011;43154;50.966;18.316;2023-01-09T00:55:10;59.10;;;22.80;;
57311;SDS011;43154;50.966;18.316;2023-01-09T00:57:36;57.80;;;22.90;;
57311;SDS011;43154;50.966;18.316;2023-01-09T01:00:02;55.90;;;22.40;;
57311;SDS011;43154;50.966;18.316;2023-01-09T01:02:29;56.70;;;24.00;;
57311;SDS011;43154;50.966;18.316;2023-01-09T01:04:55;52.90;;;22.10;;
57311;SDS011;43154;50.966;18.316;2023-01-09T01:07:39;62.60;;;24.10;;
57311;SDS011;43154;50.966;18.316;2023-01-09T01:12:36;59.30;;;23.20;;
57311;SDS011;43154;50.966;18.316;2023-01-09T01:15:03;66.20;;;24.50;;
57311;SDS011;43154;50.966;18.316;2023-01-09T01:17:30;58.20;;;23.10;;
57311;SDS011;43154;50.966;18.316;2023-01-09T01:19:58;56.90;;;23.20;;
57311;SDS011;43154;50.966;18.316;2023-01-09T01:22:23;57.40;;;21.80;;
57311;SDS011;43154;50.966;18.316;2023-01-09T01:24:49;64.90;;;24.10;;
57311;SDS011;43154;50.966;18.316;2023-01-09T01:27:15;62.40;;;23.70;;
57311;SDS011;43154;50.966;18.316;2023-01-09T01:29:40;59.50;;;23.50;;
57311;SDS011;43154;50.966;18.316;2023-01-09T01:32:06;60.50;;;23.80;;
57311;SDS011;43154;50.966;18.316;2023-01-09T01:34:32;63.40;;;24.70;;
57311;SDS011;43154;50.966;18.316;2023-01-09T01:36:58;65.30;;;23.20;;
57311;SDS011;43154;50.966;18.316;2023-01-09T01:39:23;62.60;;;24.70;;
57311;SDS011;43154;50.966;18.316;2023-01-09T01:41:49;61.80;;;23.60;;
57311;SDS011;43154;50.966;18.316;2023-01-09T01:47:18;62.40;;;23.30;;
57311;SDS011;43154;50.966;18.316;2023-01-09T01:49:46;63.00;;;23.10;;
57311;SDS011;43154;50.966;18.316;2023-01-09T01:52:11;68.10;;;23.50;;
57311;SDS011;43154;50.966;18.316;2023-01-09T01:54:38;61.80;;;24.50;;
57311;SDS011;43154;50.966;18.316;2023-01-09T01:57:03;55.70;;;22.50;;
57311;SDS011;43154;50.966;18.316;2023-01-09T01:59:37;59.60;;;24.10;;
57311;SDS011;43154;50.966;18.316;2023-01-09T02:02:05;58.60;;;23.80;;
57311;SDS011;43154;50.966;18.316;2023-01-09T02:04:32;58.10;;;22.30;;
57311;SDS011;43154;50.966;18.316;2023-01-09T02:06:59;62.50;;;23.40;;
57311;SDS011;43154;50.966;18.316;2023-01-09T02:09:27;60.20;;;23.10;;
57311;SDS011;43154;50.966;18.316;2023-01-09T02:11:56;58.40;;;22.50;;
57311;SDS011;43154;50.966;18.316;2023-01-09T02:14:29;60.60;;;23.20;;
57311;SDS011;43154;50.966;18.316;2023-01-09T02:31:18;52.40;;;20.50;;
57311;SDS011;43154;50.966;18.316;2023-01-09T02:39:26;52.00;;;21.20;;
57311;SDS011;43154;50.966;18.316;2023-01-09T02:44:29;57.20;;;21.10;;
57311;SDS011;43154;50.966;18.316;2023-01-09T02:49:42;50.40;;;19.30;;
57311;SDS011;43154;50.966;18.316;2023-01-09T02:52:19;54.60;;;21.10;;
57311;SDS011;43154;50.966;18.316;2023-01-09T02:54:58;48.70;;;19.20;;
57311;SDS011;43154;50.966;18.316;2023-01-09T02:57:37;56.60;;;20.10;;
57311;SDS011;43154;50.966;18.316;2023-01-09T03:00:30;52.70;;;20.10;;
57311;SDS011;43154;50.966;18.316;2023-01-09T03:05:55;50.60;;;19.60;;
57311;SDS011;43154;50.966;18.316;2023-01-09T03:08:27;51.00;;;19.60;;
57311;SDS011;43154;50.966;18.316;2023-01-09T03:11:01;51.60;;;20.00;;
57311;SDS011;43154;50.966;18.316;2023-01-09T03:13:33;58.00;;;20.90;;
57311;SDS011;43154;50.966;18.316;2023-01-09T03:16:04;54.70;;;20.90;;
57311;SDS011;43154;50.966;18.316;2023-01-09T03:18:31;50.20;;;20.90;;
57311;SDS011;43154;50.966;18.316;2023-01-09T03:20:57;55.30;;;21.10;;
57311;SDS011;43154;50.966;18.316;2023-01-09T03:23:24;55.10;;;21.10;;
57311;SDS011;43154;50.966;18.316;2023-01-09T03:25:50;53.00;;;20.60;;
57311;SDS011;43154;50.966;18.316;2023-01-09T03:28:25;52.10;;;19.50;;
57311;SDS011;43154;50.966;18.316;2023-01-09T03:30:53;51.10;;;20.40;;
57311;SDS011;43154;50.966;18.316;2023-01-09T03:33:19;54.50;;;20.30;;
57311;SDS011;43154;50.966;18.316;2023-01-09T03:35:45;51.70;;;19.50;;
57311;SDS011;43154;50.966;18.316;2023-01-09T03:38:11;50.70;;;19.50;;
57311;SDS011;43154;50.966;18.316;2023-01-09T03:40:36;48.70;;;19.80;;
57311;SDS011;43154;50.966;18.316;2023-01-09T03:43:02;59.10;;;22.00;;
57311;SDS011;43154;50.966;18.316;2023-01-09T03:45:28;51.80;;;20.80;;
57311;SDS011;43154;50.966;18.316;2023-01-09T03:47:53;54.90;;;20.60;;
57311;SDS011;43154;50.966;18.316;2023-01-09T03:50:19;53.90;;;20.60;;
57311;SDS011;43154;50.966;18.316;2023-01-09T03:52:45;58.50;;;21.80;;
57311;SDS011;43154;50.966;18.316;2023-01-09T03:55:10;56.00;;;21.00;;
57311;SDS011;43154;50.966;18.316;2023-01-09T03:57:36;58.70;;;21.50;;
57311;SDS011;43154;50.966;18.316;2023-01-09T04:00:02;54.70;;;20.70;;
57311;SDS011;43154;50.966;18.316;2023-01-09T04:02:28;58.10;;;21.10;;
57311;SDS011;43154;50.966;18.316;2023-01-09T04:04:54;63.40;;;22.00;;
57311;SDS011;43154;50.966;18.316;2023-01-09T04:07:20;49.00;;;19.30;;
57311;SDS011;43154;50.966;18.316;2023-01-09T04:09:46;52.10;;;21.40;;
57311;SDS011;43154;50.966;18.316;2023-01-09T04:12:11;51.30;;;20.20;;
57311;SDS011;43154;50.966;18.316;2023-01-09T04:14:38;47.20;;;18.90;;
57311;SDS011;43154;50.966;18.316;2023-01-09T04:17:04;50.90;;;19.80;;
57311;SDS011;43154;50.966;18.316;2023-01-09T04:19:29;52.40;;;20.20;;
57311;SDS011;43154;50.966;18.316;2023-01-09T04:21:55;51.20;;;19.60;;
57311;SDS011;43154;50.966;18.316;2023-01-09T04:24:21;46.20;;;19.20;;
57311;SDS011;43154;50.966;18.316;2023-01-09T04:26:46;47.00;;;18.90;;
57311;SDS011;43154;50.966;18.316;2023-01-09T04:29:12;53.50;;;21.30;;
57311;SDS011;43154;50.966;18.316;2023-01-09T04:31:40;54.10;;;21.30;;
57311;SDS011;43154;50.966;18.316;2023-01-09T04:34:06;49.10;;;19.80;;
57311;SDS011;43154;50.966;18.316;2023-01-09T04:36:32;53.90;;;20.00;;
57311;SDS011;43154;50.966;18.316;2023-01-09T04:39:00;52.50;;;20.10;;
57311;SDS011;43154;50.966;18.316;2023-01-09T04:41:26;52.90;;;20.20;;
57311;SDS011;43154;50.966;18.316;2023-01-09T04:44:10;50.20;;;20.70;;
57311;SDS011;43154;50.966;18.316;2023-01-09T04:46:36;53.70;;;21.30;;
57311;SDS011;43154;50.966;18.316;2023-01-09T04:49:02;54.70;;;20.60;;
57311;SDS011;43154;50.966;18.316;2023-01-09T04:51:27;58.90;;;21.70;;
57311;SDS011;43154;50.966;18.316;2023-01-09T04:53:53;51.00;;;19.50;;
57311;SDS011;43154;50.966;18.316;2023-01-09T04:56:19;49.20;;;19.50;;
57311;SDS011;43154;50.966;18.316;2023-01-09T04:58:44;49.40;;;19.90;;
57311;SDS011;43154;50.966;18.316;2023-01-09T05:01:10;49.70;;;20.30;;
57311;SDS011;43154;50.966;18.316;2023-01-09T05:03:35;45.70;;;18.40;;
57311;SDS011;43154;50.966;18.316;2023-01-09T05:06:04;49.50;;;19.70;;
57311;SDS011;43154;50.966;18.316;2023-01-09T05:08:30;49.50;;;19.80;;
57311;SDS011;43154;50.966;18.316;2023-01-09T05:10:55;48.10;;;19.50;;
57311;SDS011;43154;50.966;18.316;2023-01-09T05:13:21;46.00;;;19.40;;
57311;SDS011;43154;50.966;18.316;2023-01-09T05:15:46;47.40;;;20.30;;
57311;SDS011;43154;50.966;18.316;2023-01-09T05:18:12;47.20;;;19.30;;
57311;SDS011;43154;50.966;18.316;2023-01-09T05:20:37;44.70;;;19.20;;
57311;SDS011;43154;50.966;18.316;2023-01-09T05:23:03;46.40;;;19.30;;
57311;SDS011;43154;50.966;18.316;2023-01-09T05:25:29;48.10;;;21.10;;
57311;SDS011;43154;50.966;18.316;2023-01-09T05:27:55;47.60;;;19.80;;
57311;SDS011;43154;50.966;18.316;2023-01-09T05:30:20;48.80;;;20.10;;
57311;SDS011;43154;50.966;18.316;2023-01-09T05:32:46;47.90;;;21.20;;
57311;SDS011;43154;50.966;18.316;2023-01-09T05:35:12;45.70;;;19.00;;
57311;SDS011;43154;50.966;18.316;2023-01-09T05:37:37;48.60;;;21.00;;
57311;SDS011;43154;50.966;18.316;2023-01-09T05:40:04;45.70;;;19.50;;
57311;SDS011;43154;50.966;18.316;2023-01-09T05:42:30;43.60;;;18.90;;
57311;SDS011;43154;50.966;18.316;2023-01-09T05:44:57;44.50;;;18.60;;
57311;SDS011;43154;50.966;18.316;2023-01-09T05:47:22;43.00;;;19.10;;
57311;SDS011;43154;50.966;18.316;2023-01-09T05:49:49;41.70;;;18.70;;
57311;SDS011;43154;50.966;18.316;2023-01-09T05:52:14;43.90;;;19.40;;
57311;SDS011;43154;50.966;18.316;2023-01-09T05:54:40;45.60;;;18.50;;
57311;SDS011;43154;50.966;18.316;2023-01-09T05:57:06;44.10;;;19.50;;
57311;SDS011;43154;50.966;18.316;2023-01-09T05:59:31;40.10;;;18.80;;
57311;SDS011;43154;50.966;18.316;2023-01-09T06:01:57;46.50;;;20.00;;
57311;SDS011;43154;50.966;18.316;2023-01-09T06:04:23;44.10;;;19.00;;
57311;SDS011;43154;50.966;18.316;2023-01-09T06:06:49;44.50;;;18.80;;
57311;SDS011;43154;50.966;18.316;2023-01-09T06:09:14;43.10;;;19.10;;
57311;SDS011;43154;50.966;18.316;2023-01-09T06:11:40;46.00;;;18.90;;
57311;SDS011;43154;50.966;18.316;2023-01-09T06:14:06;44.00;;;20.40;;
57311;SDS011;43154;50.966;18.316;2023-01-09T06:16:31;43.60;;;18.70;;
57311;SDS011;43154;50.966;18.316;2023-01-09T06:18:57;45.40;;;19.80;;
57311;SDS011;43154;50.966;18.316;2023-01-09T06:21:25;43.20;;;19.10;;
57311;SDS011;43154;50.966;18.316;2023-01-09T06:23:54;41.40;;;18.80;;
57311;SDS011;43154;50.966;18.316;2023-01-09T06:26:20;40.30;;;17.50;;
57311;SDS011;43154;50.966;18.316;2023-01-09T06:28:46;42.70;;;18.90;;
57311;SDS011;43154;50.966;18.316;2023-01-09T06:31:12;41.20;;;18.50;;
57311;SDS011;43154;50.966;18.316;2023-01-09T06:33:37;40.00;;;18.00;;
57311;SDS011;43154;50.966;18.316;2023-01-09T06:36:03;39.70;;;17.20;;
57311;SDS011;43154;50.966;18.316;2023-01-09T06:38:29;42.50;;;18.30;;
57311;SDS011;43154;50.966;18.316;2023-01-09T06:40:55;40.50;;;18.00;;
57311;SDS011;43154;50.966;18.316;2023-01-09T06:43:21;41.60;;;17.90;;
57311;SDS011;43154;50.966;18.316;2023-01-09T06:45:47;44.80;;;18.30;;
57311;SDS011;43154;50.966;18.316;2023-01-09T06:48:13;41.00;;;18.90;;
57311;SDS011;43154;50.966;18.316;2023-01-09T06:50:38;41.10;;;19.30;;
57311;SDS011;43154;50.966;18.316;2023-01-09T06:53:04;44.10;;;20.10;;
57311;SDS011;43154;50.966;18.316;2023-01-09T06:55:30;42.00;;;19.30;;
57311;SDS011;43154;50.966;18.316;2023-01-09T06:57:56;42.60;;;19.40;;
57311;SDS011;43154;50.966;18.316;2023-01-09T07:00:22;40.50;;;18.20;;
57311;SDS011;43154;50.966;18.316;2023-01-09T07:02:49;41.70;;;18.20;;
57311;SDS011;43154;50.966;18.316;2023-01-09T07:05:14;40.10;;;17.70;;
57311;SDS011;43154;50.966;18.316;2023-01-09T07:07:40;43.90;;;19.80;;
57311;SDS011;43154;50.966;18.316;2023-01-09T07:10:07;42.80;;;19.70;;
57311;SDS011;43154;50.966;18.316;2023-01-09T07:12:33;43.70;;;20.10;;
57311;SDS011;43154;50.966;18.316;2023-01-09T07:14:59;46.10;;;21.00;;
57311;SDS011;43154;50.966;18.316;2023-01-09T07:17:25;46.80;;;21.80;;
57311;SDS011;43154;50.966;18.316;2023-01-09T07:19:51;47.20;;;21.10;;
57311;SDS011;43154;50.966;18.316;2023-01-09T07:22:16;47.60;;;21.80;;
57311;SDS011;43154;50.966;18.316;2023-01-09T07:24:42;49.30;;;22.80;;
57311;SDS011;43154;50.966;18.316;2023-01-09T07:27:11;48.10;;;22.50;;
57311;SDS011;43154;50.966;18.316;2023-01-09T08:02:13;61.60;;;29.70;;
57311;SDS011;43154;50.966;18.316;2023-01-09T08:04:39;53.30;;;24.90;;
57311;SDS011;43154;50.966;18.316;2023-01-09T08:07:11;58.80;;;26.90;;
57311;SDS011;43154;50.966;18.316;2023-01-09T08:09:40;55.80;;;26.90;;
57311;SDS011;43154;50.966;18.316;2023-01-09T08:12:13;59.10;;;27.90;;
57311;SDS011;43154;50.966;18.316;2023-01-09T08:14:39;56.10;;;27.20;;
57311;SDS011;43154;50.966;18.316;2023-01-09T08:17:07;50.70;;;25.40;;
57311;SDS011;43154;50.966;18.316;2023-01-09T08:19:39;56.40;;;26.70;;
57311;SDS011;43154;50.966;18.316;2023-01-09T08:22:10;52.50;;;25.60;;
57311;SDS011;43154;50.966;18.316;2023-01-09T08:24:40;50.30;;;24.50;;
57311;SDS011;43154;50.966;18.316;2023-01-09T08:27:12;55.20;;;25.90;;
57311;SDS011;43154;50.966;18.316;2023-01-09T08:29:43;47.60;;;23.50;;
57311;SDS011;43154;50.966;18.316;2023-01-09T08:32:11;48.90;;;23.70;;
57311;SDS011;43154;50.966;18.316;2023-01-09T08:34:45;47.10;;;23.60;;
57311;SDS011;43154;50.966;18.316;2023-01-09T08:37:14;52.30;;;24.70;;
57311;SDS011;43154;50.966;18.316;2023-01-09T08:39:43;49.40;;;24.40;;
57311;SDS011;43154;50.966;18.316;2023-01-09T08:45:25;49.40;;;23.40;;
57311;SDS011;43154;50.966;18.316;2023-01-09T08:48:12;52.20;;;23.90;;
57311;SDS011;43154;50.966;18.316;2023-01-09T08:50:44;47.50;;;22.90;;
57311;SDS011;43154;50.966;18.316;2023-01-09T08:53:16;48.30;;;22.80;;
57311;SDS011;43154;50.966;18.316;2023-01-09T08:55:47;49.00;;;22.60;;
57311;SDS011;43154;50.966;18.316;2023-01-09T08:58:19;44.20;;;22.20;;
57311;SDS011;43154;50.966;18.316;2023-01-09T09:00:54;40.50;;;21.40;;
57311;SDS011;43154;50.966;18.316;2023-01-09T09:03:28;48.10;;;23.30;;
57311;SDS011;43154;50.966;18.316;2023-01-09T09:05:57;45.10;;;23.50;;
57311;SDS011;43154;50.966;18.316;2023-01-09T09:08:27;48.30;;;23.80;;
57311;SDS011;43154;50.966;18.316;2023-01-09T09:10:56;46.70;;;23.00;;
57311;SDS011;43154;50.966;18.316;2023-01-09T09:13:28;45.20;;;22.60;;
57311;SDS011;43154;50.966;18.316;2023-01-09T09:16:00;49.80;;;25.30;;
57311;SDS011;43154;50.966;18.316;2023-01-09T09:18:28;48.00;;;24.10;;
57311;SDS011;43154;50.966;18.316;2023-01-09T09:21:00;47.10;;;23.70;;
57311;SDS011;43154;50.966;18.316;2023-01-09T09:23:29;44.40;;;23.10;;
57311;SDS011;43154;50.966;18.316;2023-01-09T09:25:58;45.90;;;24.00;;
57311;SDS011;43154;50.966;18.316;2023-01-09T09:28:30;48.10;;;23.50;;
57311;SDS011;43154;50.966;18.316;2023-01-09T09:31:07;45.00;;;23.20;;
57311;SDS011;43154;50.966;18.316;2023-01-09T09:33:36;44.90;;;22.80;;
57311;SDS011;43154;50.966;18.316;2023-01-09T09:36:07;44.30;;;21.80;;
57311;SDS011;43154;50.966;18.316;2023-01-09T09:38:41;43.80;;;21.40;;
57311;SDS011;43154;50.966;18.316;2023-01-09T09:41:31;43.80;;;21.70;;
57311;SDS011;43154;50.966;18.316;2023-01-09T09:47:47;40.90;;;20.30;;
57311;SDS011;43154;50.966;18.316;2023-01-09T09:53:16;39.80;;;19.30;;
57311;SDS011;43154;50.966;18.316;2023-01-09T09:55:56;37.30;;;19.50;;
57311;SDS011;43154;50.966;18.316;2023-01-09T09:58:26;37.10;;;17.90;;
57311;SDS011;43154;50.966;18.316;2023-01-09T10:00:58;37.60;;;18.00;;
57311;SDS011;43154;50.966;18.316;2023-01-09T10:06:14;35.30;;;18.50;;
57311;SDS011;43154;50.966;18.316;2023-01-09T10:12:02;31.80;;;15.60;;
57311;SDS011;43154;50.966;18.316;2023-01-09T10:14:54;33.00;;;16.80;;
57311;SDS011;43154;50.966;18.316;2023-01-09T10:17:32;31.50;;;14.00;;
57311;SDS011;43154;50.966;18.316;2023-01-09T10:23:33;24.80;;;12.40;;
57311;SDS011;43154;50.966;18.316;2023-01-09T10:32:15;24.40;;;11.00;;
57311;SDS011;43154;50.966;18.316;2023-01-09T10:37:44;19.80;;;9.60;;
57311;SDS011;43154;50.966;18.316;2023-01-09T10:40:19;21.70;;;9.50;;
57311;SDS011;43154;50.966;18.316;2023-01-09T10:42:56;18.40;;;8.60;;
57311;SDS011;43154;50.966;18.316;2023-01-09T10:45:33;18.60;;;8.40;;
57311;SDS011;43154;50.966;18.316;2023-01-09T10:48:13;18.50;;;8.20;;
57311;SDS011;43154;50.966;18.316;2023-01-09T10:51:02;18.40;;;8.60;;
57311;SDS011;43154;50.966;18.316;2023-01-09T21:02:12;50.20;;;25.60;;
57311;SDS011;43154;50.966;18.316;2023-01-09T21:04:40;53.20;;;27.00;;
57311;SDS011;43154;50.966;18.316;2023-01-09T21:07:05;50.40;;;27.10;;
57311;SDS011;43154;50.966;18.316;2023-01-09T21:09:31;44.90;;;24.00;;
57311;SDS011;43154;50.966;18.316;2023-01-09T21:11:57;39.10;;;19.40;;
57311;SDS011;43154;50.966;18.316;2023-01-09T21:14:26;41.40;;;20.00;;
57311;SDS011;43154;50.966;18.316;2023-01-09T21:16:52;39.00;;;19.30;;
57311;SDS011;43154;50.966;18.316;2023-01-09T21:19:18;39.90;;;20.00;;
57311;SDS011;43154;50.966;18.316;2023-01-09T21:21:44;39.10;;;19.30;;
57311;SDS011;43154;50.966;18.316;2023-01-09T21:24:09;42.20;;;21.80;;
57311;SDS011;43154;50.966;18.316;2023-01-09T21:26:35;43.00;;;22.10;;
57311;SDS011;43154;50.966;18.316;2023-01-09T21:29:01;42.60;;;22.20;;
57311;SDS011;43154;50.966;18.316;2023-01-09T21:31:32;49.50;;;25.50;;
57311;SDS011;43154;50.966;18.316;2023-01-09T21:33:59;48.90;;;25.10;;
57311;SDS011;43154;50.966;18.316;2023-01-09T21:36:28;53.30;;;27.60;;
57311;SDS011;43154;50.966;18.316;2023-01-09T21:38:55;49.50;;;25.20;;
57311;SDS011;43154;50.966;18.316;2023-01-09T21:41:22;43.40;;;20.70;;
57311;SDS011;43154;50.966;18.316;2023-01-09T21:44:09;38.10;;;18.40;;
57311;SDS011;43154;50.966;18.316;2023-01-09T21:46:56;43.50;;;20.00;;
57311;SDS011;43154;50.966;18.316;2023-01-09T21:49:26;40.10;;;19.50;;
57311;SDS011;43154;50.966;18.316;2023-01-09T21:51:55;41.10;;;20.40;;
57311;SDS011;43154;50.966;18.316;2023-01-09T21:54:21;42.60;;;21.00;;
57311;SDS011;43154;50.966;18.316;2023-01-09T21:56:48;41.40;;;18.90;;
57311;SDS011;43154;50.966;18.316;2023-01-09T21:59:15;43.50;;;20.40;;
57311;SDS011;43154;50.966;18.316;2023-01-09T22:01:42;39.80;;;18.60;;
57311;SDS011;43154;50.966;18.316;2023-01-09T22:04:10;40.90;;;19.80;;
57311;SDS011;43154;50.966;18.316;2023-01-09T22:06:38;51.20;;;21.70;;
57311;SDS011;43154;50.966;18.316;2023-01-09T22:09:05;44.90;;;21.20;;
57311;SDS011;43154;50.966;18.316;2023-01-09T22:11:31;46.40;;;21.40;;
57311;SDS011;43154;50.966;18.316;2023-01-09T22:14:00;51.70;;;23.80;;
57311;SDS011;43154;50.966;18.316;2023-01-09T22:16:26;53.20;;;25.60;;
57311;SDS011;43154;50.966;18.316;2023-01-09T22:18:52;47.20;;;21.20;;
57311;SDS011;43154;50.966;18.316;2023-01-09T22:21:20;50.60;;;25.70;;
57311;SDS011;43154;50.966;18.316;2023-01-09T22:23:46;46.90;;;22.90;;
57311;SDS011;43154;50.966;18.316;2023-01-09T22:26:13;48.60;;;25.20;;
57311;SDS011;43154;50.966;18.316;2023-01-09T22:28:41;59.20;;;29.60;;
57311;SDS011;43154;50.966;18.316;2023-01-09T22:31:10;57.40;;;29.30;;
57311;SDS011;43154;50.966;18.316;2023-01-09T22:33:39;56.80;;;29.20;;
57311;SDS011;43154;50.966;18.316;2023-01-09T22:36:05;49.40;;;25.00;;
57311;SDS011;43154;50.966;18.316;2023-01-09T22:38:34;47.60;;;24.40;;
57311;SDS011;43154;50.966;18.316;2023-01-09T22:41:01;49.30;;;24.50;;
57311;SDS011;43154;50.966;18.316;2023-01-09T22:43:27;51.90;;;27.00;;
57311;SDS011;43154;50.966;18.316;2023-01-09T22:45:58;57.30;;;30.70;;
57311;SDS011;43154;50.966;18.316;2023-01-09T22:48:28;54.00;;;28.00;;
57311;SDS011;43154;50.966;18.316;2023-01-09T22:50:59;45.30;;;21.00;;
57311;SDS011;43154;50.966;18.316;2023-01-09T22:53:30;43.20;;;21.10;;
57311;SDS011;43154;50.966;18.316;2023-01-09T22:55:57;40.80;;;19.70;;
57311;SDS011;43154;50.966;18.316;2023-01-09T22:58:24;42.50;;;19.30;;
57311;SDS011;43154;50.966;18.316;2023-01-09T23:00:52;42.50;;;20.70;;
57311;SDS011;43154;50.966;18.316;2023-01-09T23:03:19;49.80;;;25.10;;
57311;SDS011;43154;50.966;18.316;2023-01-09T23:05:45;49.00;;;23.30;;
57311;SDS011;43154;50.966;18.316;2023-01-09T23:08:11;46.70;;;22.10;;
57311;SDS011;43154;50.966;18.316;2023-01-09T23:10:38;52.20;;;26.00;;
57311;SDS011;43154;50.966;18.316;2023-01-09T23:13:06;57.20;;;30.10;;
57311;SDS011;43154;50.966;18.316;2023-01-09T23:15:34;54.90;;;27.00;;
57311;SDS011;43154;50.966;18.316;2023-01-09T23:18:00;48.70;;;24.80;;
57311;SDS011;43154;50.966;18.316;2023-01-09T23:20:26;49.20;;;24.30;;
57311;SDS011;43154;50.966;18.316;2023-01-09T23:22:51;46.90;;;21.70;;
57311;SDS011;43154;50.966;18.316;2023-01-09T23:25:17;39.60;;;20.30;;
57311;SDS011;43154;50.966;18.316;2023-01-09T23:27:46;42.00;;;20.30;;
57311;SDS011;43154;50.966;18.316;2023-01-09T23:30:16;47.30;;;21.80;;
57311;SDS011;43154;50.966;18.316;2023-01-09T23:32:42;45.90;;;21.10;;
57311;SDS011;43154;50.966;18.316;2023-01-09T23:35:09;45.00;;;21.50;;
57311;SDS011;43154;50.966;18.316;2023-01-09T23:37:36;43.50;;;21.30;;
57311;SDS011;43154;50.966;18.316;2023-01-09T23:40:02;46.10;;;21.80;;
57311;SDS011;43154;50.966;18.316;2023-01-09T23:42:29;45.70;;;22.10;;
57311;SDS011;43154;50.966;18.316;2023-01-09T23:45:13;52.60;;;24.50;;
57311;SDS011;43154;50.966;18.316;2023-01-09T23:47:39;50.00;;;22.20;;
57311;SDS011;43154;50.966;18.316;2023-01-09T23:50:05;48.50;;;22.50;;
57311;SDS011;43154;50.966;18.316;2023-01-09T23:52:31;47.60;;;23.10;;
57311;SDS011;43154;50.966;18.316;2023-01-09T23:54:56;48.00;;;22.50;;
57311;SDS011;43154;50.966;18.316;2023-01-09T23:57:24;47.20;;;22.90;;
57311;SDS011;43154;50.966;18.316;2023-01-09T23:59:50;49.90;;;24.00;;
